KJAX/JAX METAR and TAF weather

Enter ICAO airport designator
Station Type Date Time Source
KJAX METAR 2022/01/23 11:56 UTC NOAA

KJAX 231156Z 32007KT 10SM OVC011 03/01 A3019 RMK AO2 SLP223 T00330006 10039 20033 53001


Station Type Date Time Source
KJAX Decoded METAR 2022/01/23 11:56 UTC NOAA

JACKSONVILLE INTERNATIONAL, FL, United States (KJAX) 30-30N 81-42W 7M
Jan 23, 2022 - 06:56 AM EST / 2022.01.23 1156 UTC
Wind: from the NW (320 degrees) at 8 MPH (7 KT):0
Visibility: 10 mile(s):0
Sky conditions: overcast
Temperature: 37.9 F (3.3 C)
Dew Point: 33.1 F (0.6 C)
Relative Humidity: 82%
Pressure (altimeter): 30.19 in. Hg (1022 hPa)
Pressure tendency: 0.00 inches (0.1 hPa) higher than three hours ago
ob: KJAX 231156Z 32007KT 10SM OVC011 03/01 A3019 RMK AO2 SLP223 T00330006 10039 20033 53001
cycle: 12

Station Type Date Time Source
KJAX TAF 2022/01/23 12:22 UTC NOAA

TAF KJAX 231120Z 2312/2412 33006KT P6SM OVC012
FM231300 32006KT P6SM BKN015
FM231400 31006KT P6SM SCT020
FM231600 29009KT P6SM SKC
FM232300 27002KT P6SM SKC

Example: see airport list